createdAt,value
2023-01-18T00:01:05.373Z,10.21
2023-01-18T00:03:33.860Z,10.22
2023-01-18T00:06:02.264Z,10.23
2023-01-18T00:08:30.671Z,10.25
2023-01-18T00:11:12.663Z,10.27
2023-01-18T00:13:40.055Z,10.26
2023-01-18T00:16:11.413Z,10.28
2023-01-18T00:18:38.482Z,10.27
2023-01-18T00:21:08.760Z,10.24
2023-01-18T00:23:36.685Z,10.22
2023-01-18T00:26:09.231Z,10.21
2023-01-18T00:28:36.836Z,10.19
2023-01-18T00:31:15.714Z,10.19
2023-01-18T00:33:45.977Z,10.17
2023-01-18T00:36:14.670Z,10.13
2023-01-18T00:38:41.987Z,10.09
2023-01-18T00:41:09.125Z,10.12
2023-01-18T00:43:39.271Z,10.07
2023-01-18T00:46:08.312Z,10.04
2023-01-18T00:48:35.970Z,10.04
2023-01-18T00:51:03.174Z,10.01
2023-01-18T00:53:30.361Z,9.98
2023-01-18T00:55:57.256Z,9.94
2023-01-18T00:58:24.233Z,9.97
2023-01-18T01:00:53.011Z,9.95
2023-01-18T01:03:21.108Z,9.97
2023-01-18T01:06:06.758Z,9.96
2023-01-18T01:08:34.128Z,9.93
2023-01-18T01:11:12.375Z,9.89
2023-01-18T01:13:57.837Z,9.84
2023-01-18T01:16:43.668Z,9.82
2023-01-18T01:19:29.229Z,9.80
2023-01-18T01:22:14.893Z,9.74
2023-01-18T01:25:00.580Z,9.69
2023-01-18T01:27:27.623Z,9.68
2023-01-18T01:29:54.529Z,9.69
2023-01-18T01:32:21.603Z,9.66
2023-01-18T01:34:53.172Z,9.68
2023-01-18T01:37:20.224Z,9.66
2023-01-18T01:39:47.126Z,9.64
2023-01-18T01:42:14.106Z,9.60
2023-01-18T01:44:45.499Z,9.61
2023-01-18T01:47:41.391Z,9.54
2023-01-18T01:50:17.457Z,9.58
2023-01-18T01:52:47.547Z,9.53
2023-01-18T01:55:29.577Z,9.51
2023-01-18T01:58:11.228Z,9.53
2023-01-18T02:00:38.234Z,9.51
2023-01-18T02:03:10.946Z,9.51
2023-01-18T02:05:47.672Z,9.50
2023-01-18T02:08:22.760Z,9.53
2023-01-18T02:10:51.434Z,9.54
2023-01-18T02:13:21.151Z,9.53
2023-01-18T02:16:19.037Z,9.54
2023-01-18T02:19:18.509Z,9.52
2023-01-18T02:22:27.134Z,9.47
2023-01-18T02:25:16.928Z,9.44
2023-01-18T02:27:50.586Z,9.39
2023-01-18T02:30:31.069Z,9.37
2023-01-18T02:33:33.017Z,9.38
2023-01-18T02:36:05.825Z,9.36
2023-01-18T02:38:45.082Z,9.34
2023-01-18T02:41:21.073Z,9.31
2023-01-18T02:44:10.062Z,9.28
2023-01-18T02:46:38.985Z,9.26
2023-01-18T02:49:18.398Z,9.27
2023-01-18T02:51:45.277Z,9.24
2023-01-18T02:54:13.300Z,9.19
2023-01-18T02:56:47.350Z,9.19
2023-01-18T02:59:50.752Z,9.18
2023-01-18T03:02:21.064Z,9.12
2023-01-18T03:04:56.618Z,9.13
2023-01-18T03:07:29.245Z,9.13
2023-01-18T03:09:58.654Z,9.11
2023-01-18T03:12:46.627Z,9.12
2023-01-18T03:15:44.474Z,9.05
2023-01-18T03:18:16.744Z,9.02
2023-01-18T03:20:49.922Z,9.04
2023-01-18T03:23:41.378Z,9.05
2023-01-18T03:26:09.825Z,9.04
2023-01-18T03:28:59.078Z,9.05
2023-01-18T03:32:14.065Z,9.07
2023-01-18T03:34:53.740Z,9.01
2023-01-18T03:37:33.798Z,9.04
2023-01-18T03:40:11.306Z,9.01
2023-01-18T03:42:48.530Z,9.00
2023-01-18T03:45:30.810Z,8.98
2023-01-18T03:47:58.146Z,8.92
2023-01-18T03:50:33.392Z,8.86
2023-01-18T03:53:10.017Z,8.83
2023-01-18T03:56:04.901Z,8.77
2023-01-18T03:58:36.072Z,8.83
2023-01-18T04:01:05.225Z,8.87
2023-01-18T04:03:33.389Z,8.84
2023-01-18T04:06:03.404Z,8.85
2023-01-18T04:08:30.363Z,8.80
2023-01-18T04:10:57.289Z,8.88
2023-01-18T04:13:24.348Z,8.78
2023-01-18T04:15:51.360Z,8.81
2023-01-18T04:18:18.393Z,8.91
2023-01-18T04:20:45.307Z,8.94
2023-01-18T04:23:12.389Z,8.96
2023-01-18T04:25:41.133Z,9.02
2023-01-18T04:28:08.362Z,9.04
2023-01-18T04:30:35.314Z,9.01
2023-01-18T04:33:02.399Z,9.02
2023-01-18T04:35:29.431Z,9.05
2023-01-18T04:37:56.380Z,9.06
2023-01-18T04:40:23.229Z,9.04
2023-01-18T04:42:54.434Z,8.97
2023-01-18T04:45:21.711Z,9.00
2023-01-18T04:47:48.801Z,9.00
2023-01-18T04:50:16.080Z,9.01
2023-01-18T04:52:43.184Z,9.02
2023-01-18T04:55:16.002Z,9.01
2023-01-18T04:57:44.151Z,9.00
2023-01-18T05:00:13.444Z,8.99
2023-01-18T05:02:40.574Z,8.96
2023-01-18T05:05:08.878Z,8.94
2023-01-18T05:07:35.885Z,8.96
2023-01-18T05:10:04.320Z,8.95
2023-01-18T05:12:31.283Z,8.93
2023-01-18T05:14:58.249Z,8.91
2023-01-18T05:17:30.677Z,8.84
2023-01-18T05:19:57.588Z,8.85
2023-01-18T05:22:24.551Z,8.83
2023-01-18T05:24:51.577Z,8.76
2023-01-18T05:27:18.604Z,8.75
2023-01-18T05:29:48.403Z,8.75
2023-01-18T05:32:15.431Z,8.72
2023-01-18T05:34:42.617Z,8.72
2023-01-18T05:37:10.301Z,8.68
2023-01-18T05:39:37.821Z,8.67
2023-01-18T05:42:05.807Z,8.66
2023-01-18T05:44:33.273Z,8.61
2023-01-18T05:47:00.363Z,8.57
2023-01-18T05:49:29.210Z,8.58
2023-01-18T05:51:56.714Z,8.52
2023-01-18T05:54:23.752Z,8.49
2023-01-18T05:56:50.763Z,8.49
2023-01-18T05:59:17.720Z,8.51
2023-01-18T06:01:44.685Z,8.49
2023-01-18T06:04:11.705Z,8.46
2023-01-18T06:06:38.620Z,8.47
2023-01-18T06:09:05.618Z,8.48
2023-01-18T06:11:32.635Z,8.44
2023-01-18T06:13:59.823Z,8.39
2023-01-18T06:16:27.194Z,8.41
2023-01-18T06:18:54.125Z,8.47
2023-01-18T06:21:21.503Z,8.49
2023-01-18T06:23:48.406Z,8.51
2023-01-18T06:26:15.417Z,8.52
2023-01-18T06:28:42.317Z,8.52
2023-01-18T06:31:10.598Z,8.51
2023-01-18T06:33:37.820Z,8.52
2023-01-18T06:36:06.058Z,8.52
2023-01-18T06:38:33.138Z,8.46
2023-01-18T06:41:00.163Z,8.41
2023-01-18T06:43:27.179Z,8.40
2023-01-18T06:45:57.830Z,8.43
2023-01-18T06:48:26.798Z,8.42
2023-01-18T06:50:57.412Z,8.42
2023-01-18T06:53:24.730Z,8.37
2023-01-18T06:55:58.580Z,8.32
2023-01-18T06:58:35.291Z,8.30
2023-01-18T07:01:03.078Z,8.30
2023-01-18T07:03:31.768Z,8.27
2023-01-18T07:06:00.542Z,8.27
2023-01-18T07:08:31.005Z,8.26
2023-01-18T07:10:59.565Z,8.26
2023-01-18T07:13:27.254Z,8.18
2023-01-18T07:15:57.976Z,8.22
2023-01-18T07:18:26.659Z,8.25
2023-01-18T07:21:07.212Z,8.24
2023-01-18T07:23:36.436Z,8.27
2023-01-18T07:26:05.655Z,8.37
2023-01-18T07:28:33.781Z,8.45
2023-01-18T07:31:01.289Z,8.69
2023-01-18T07:33:28.833Z,8.83
2023-01-18T07:35:57.276Z,8.85
2023-01-18T07:38:25.231Z,8.82
2023-01-18T07:41:02.420Z,8.79
2023-01-18T07:43:30.837Z,8.82
2023-01-18T07:46:00.921Z,8.96
2023-01-18T07:48:29.011Z,9.55
2023-01-18T07:50:58.044Z,9.96
2023-01-18T07:53:26.239Z,10.35
2023-01-18T07:55:54.218Z,10.62
2023-01-18T07:58:21.724Z,11.13
2023-01-18T08:00:48.665Z,11.92
2023-01-18T08:03:17.333Z,12.84
2023-01-18T08:05:45.217Z,13.80
2023-01-18T08:08:17.707Z,14.20
2023-01-18T08:10:45.089Z,14.96
2023-01-18T08:13:12.191Z,15.67
2023-01-18T08:15:40.880Z,16.49
2023-01-18T08:18:09.051Z,17.39
2023-01-18T08:20:36.347Z,18.15
2023-01-18T08:23:04.195Z,18.42
2023-01-18T08:25:33.696Z,19.24
2023-01-18T08:28:02.082Z,19.59
2023-01-18T08:30:35.179Z,20.06
2023-01-18T08:33:03.328Z,20.17
2023-01-18T08:35:33.266Z,20.51
2023-01-18T08:38:01.239Z,21.06
2023-01-18T08:40:28.988Z,21.90
2023-01-18T08:42:59.809Z,22.34
2023-01-18T08:45:31.134Z,22.53
2023-01-18T08:48:02.536Z,22.77
2023-01-18T08:50:33.660Z,22.92
2023-01-18T08:53:01.167Z,23.23
2023-01-18T08:55:29.908Z,23.76
2023-01-18T08:57:59.222Z,24.00
2023-01-18T09:00:30.313Z,23.61
2023-01-18T09:02:58.497Z,22.88
2023-01-18T09:05:27.275Z,21.80
2023-01-18T09:07:55.728Z,20.94
2023-01-18T09:10:22.916Z,19.95
2023-01-18T09:12:52.758Z,19.42
2023-01-18T09:15:20.692Z,19.96
2023-01-18T09:17:47.552Z,21.36
2023-01-18T09:20:16.586Z,22.04
2023-01-18T09:22:47.990Z,22.67
2023-01-18T09:25:15.551Z,21.41
2023-01-18T09:27:42.707Z,21.14
2023-01-18T09:30:10.221Z,20.31
2023-01-18T09:32:37.211Z,19.08
2023-01-18T09:35:06.133Z,18.29
2023-01-18T09:37:33.015Z,18.21
2023-01-18T09:40:00.545Z,19.19
2023-01-18T09:42:41.079Z,20.56
2023-01-18T09:45:24.895Z,22.22
2023-01-18T09:47:55.475Z,23.51
2023-01-18T09:50:22.745Z,23.94
2023-01-18T09:52:59.290Z,25.29
2023-01-18T09:55:54.174Z,26.52
2023-01-18T09:58:50.896Z,27.69
2023-01-18T10:01:22.119Z,27.22
2023-01-18T10:04:00.914Z,25.95
2023-01-18T10:06:32.771Z,24.66
2023-01-18T10:09:07.076Z,23.56
2023-01-18T10:11:47.464Z,22.65
2023-01-18T10:14:24.343Z,21.82
2023-01-18T10:16:58.259Z,21.18
2023-01-18T10:19:30.553Z,20.68
2023-01-18T10:22:12.620Z,19.97
2023-01-18T10:24:45.536Z,19.78
2023-01-18T10:27:40.742Z,19.06
2023-01-18T10:30:15.403Z,18.88
2023-01-18T10:32:50.889Z,18.40
2023-01-18T10:35:26.417Z,18.01
2023-01-18T10:37:57.759Z,17.82
2023-01-18T10:40:25.068Z,17.60
2023-01-18T10:42:56.922Z,17.69
2023-01-18T10:45:29.924Z,18.22
2023-01-18T10:47:59.654Z,19.08
2023-01-18T10:50:26.426Z,19.45
2023-01-18T10:52:53.340Z,19.35
2023-01-18T10:55:21.151Z,18.86
2023-01-18T10:57:54.392Z,18.43
2023-01-18T11:00:34.785Z,18.04
2023-01-18T11:03:05.204Z,17.76
2023-01-18T11:05:40.107Z,17.33
2023-01-18T11:08:12.989Z,17.06
2023-01-18T11:10:41.601Z,16.78
2023-01-18T11:13:47.246Z,17.22
2023-01-18T11:16:18.321Z,17.58
2023-01-18T11:18:59.463Z,17.70
2023-01-18T11:21:33.097Z,18.53
2023-01-18T11:24:07.780Z,19.98
2023-01-18T11:26:34.725Z,21.93
2023-01-18T11:29:07.158Z,21.88
2023-01-18T11:31:46.629Z,21.91
2023-01-18T11:34:35.506Z,21.88
2023-01-18T11:37:04.104Z,21.60
2023-01-18T11:39:30.973Z,21.38
2023-01-18T11:42:26.019Z,21.30
2023-01-18T11:45:25.181Z,21.25
2023-01-18T11:48:09.908Z,20.37
2023-01-18T11:50:57.285Z,20.02
2023-01-18T11:53:43.763Z,19.74
2023-01-18T11:56:19.475Z,19.52
2023-01-18T11:58:47.208Z,19.24
2023-01-18T12:01:57.616Z,19.06
2023-01-18T12:04:43.961Z,19.22
2023-01-18T12:08:08.274Z,19.20
2023-01-18T12:11:14.507Z,19.02
2023-01-18T12:13:47.476Z,18.73
2023-01-18T12:16:22.398Z,18.69
2023-01-18T12:19:01.719Z,18.39
2023-01-18T12:21:37.806Z,18.22
2023-01-18T12:24:16.315Z,17.80
2023-01-18T12:26:48.222Z,17.65
2023-01-18T12:29:50.432Z,17.33
2023-01-18T12:32:48.501Z,16.95
2023-01-18T12:35:48.796Z,16.79
2023-01-18T12:38:31.808Z,16.66
2023-01-18T12:41:05.009Z,16.63
2023-01-18T12:43:54.573Z,16.63
2023-01-18T12:46:36.888Z,16.51
2023-01-18T12:49:18.935Z,16.49
2023-01-18T12:51:51.020Z,16.39
2023-01-18T12:54:41.763Z,16.37
2023-01-18T12:57:09.268Z,16.25
2023-01-18T12:59:43.582Z,16.14
2023-01-18T13:02:38.243Z,15.86
2023-01-18T13:05:43.262Z,15.79
2023-01-18T13:08:21.274Z,15.88
2023-01-18T13:10:48.768Z,16.03
2023-01-18T13:13:21.482Z,15.93
2023-01-18T13:16:09.926Z,15.80
2023-01-18T13:18:57.182Z,15.85
2023-01-18T13:21:27.306Z,15.73
2023-01-18T13:24:12.994Z,15.58
2023-01-18T13:26:40.339Z,15.34
2023-01-18T13:29:10.344Z,15.34
2023-01-18T13:31:38.209Z,15.33
2023-01-18T13:34:17.815Z,15.31
2023-01-18T13:36:46.642Z,15.11
2023-01-18T13:39:19.387Z,14.94
2023-01-18T13:42:04.943Z,14.78
2023-01-18T13:44:46.016Z,14.86
2023-01-18T13:47:45.893Z,14.84
2023-01-18T13:50:40.185Z,14.75
2023-01-18T13:53:13.513Z,14.80
2023-01-18T13:55:55.566Z,14.85
2023-01-18T13:58:30.425Z,14.97
2023-01-18T14:01:03.454Z,15.03
2023-01-18T14:03:38.769Z,14.94
2023-01-18T14:06:10.411Z,14.96
2023-01-18T14:08:47.838Z,15.21
2023-01-18T14:11:27.730Z,15.25
2023-01-18T14:13:55.419Z,15.30
2023-01-18T14:16:32.282Z,15.36
2023-01-18T14:19:21.964Z,15.52
2023-01-18T14:21:56.031Z,15.48
2023-01-18T14:24:58.839Z,15.52
2023-01-18T14:27:32.872Z,15.65
2023-01-18T14:30:05.303Z,15.51
2023-01-18T14:32:37.915Z,15.30
2023-01-18T14:35:25.956Z,15.34
2023-01-18T14:38:16.712Z,15.12
2023-01-18T14:40:50.454Z,15.18
2023-01-18T14:43:29.376Z,15.24
2023-01-18T14:46:03.875Z,15.31
2023-01-18T14:48:35.059Z,15.31
2023-01-18T14:51:02.601Z,15.25
2023-01-18T14:53:38.730Z,15.39
2023-01-18T14:56:14.849Z,15.33
2023-01-18T14:59:05.851Z,15.23
2023-01-18T15:01:39.041Z,15.23
2023-01-18T15:04:19.670Z,15.30
2023-01-18T15:07:14.373Z,15.27
2023-01-18T15:09:43.183Z,15.20
2023-01-18T15:12:14.064Z,15.13
2023-01-18T15:14:50.740Z,15.20
2023-01-18T15:17:24.721Z,15.13
2023-01-18T15:20:08.214Z,15.11
2023-01-18T15:22:40.705Z,15.12
2023-01-18T15:25:18.902Z,15.12
2023-01-18T15:27:53.022Z,15.12
2023-01-18T15:30:24.955Z,15.14
2023-01-18T15:33:02.318Z,15.12
2023-01-18T15:38:05.134Z,14.98
2023-01-18T15:40:35.939Z,14.93
2023-01-18T15:43:29.625Z,14.95
2023-01-18T15:45:58.348Z,14.89
2023-01-18T15:48:28.195Z,14.81
2023-01-18T15:50:57.340Z,14.74
2023-01-18T15:53:27.233Z,14.69
2023-01-18T15:56:03.459Z,14.61
2023-01-18T15:58:46.085Z,14.53
2023-01-18T16:01:13.029Z,14.49
2023-01-18T16:03:49.004Z,14.40
2023-01-18T16:06:34.685Z,14.34
2023-01-18T16:09:12.685Z,14.25
2023-01-18T16:11:53.288Z,14.17
2023-01-18T16:14:29.331Z,14.05
2023-01-18T16:16:59.637Z,14.04
2023-01-18T16:19:31.949Z,13.99
2023-01-18T16:22:17.727Z,13.94
2023-01-18T16:24:51.061Z,13.86
2023-01-18T16:27:28.085Z,13.77
2023-01-18T16:30:00.567Z,13.68
2023-01-18T16:32:29.987Z,13.58
2023-01-18T16:35:03.737Z,13.50
2023-01-18T16:37:31.445Z,13.41
2023-01-18T16:39:58.644Z,13.34
2023-01-18T16:42:37.085Z,13.24
2023-01-18T16:45:05.913Z,13.16
2023-01-18T16:47:33.545Z,13.07
2023-01-18T16:50:00.605Z,12.98
2023-01-18T16:52:27.536Z,12.90
2023-01-18T16:54:57.759Z,12.84
2023-01-18T16:57:24.845Z,12.70
2023-01-18T16:59:52.193Z,12.68
2023-01-18T17:02:19.433Z,12.60
2023-01-18T17:04:46.739Z,12.55
2023-01-18T17:07:13.879Z,12.44
2023-01-18T17:09:48.694Z,12.35
2023-01-18T17:12:16.794Z,12.24
2023-01-18T17:14:44.086Z,12.14
2023-01-18T17:17:14.173Z,12.10
2023-01-18T17:19:44.016Z,12.06
2023-01-18T17:22:11.390Z,12.06
2023-01-18T17:24:38.256Z,11.99
2023-01-18T17:27:05.142Z,11.87
2023-01-18T17:29:32.235Z,11.88
2023-01-18T17:31:59.554Z,11.80
2023-01-18T17:34:29.091Z,11.69
2023-01-18T17:36:58.408Z,11.74
2023-01-18T17:39:37.005Z,11.63
2023-01-18T17:42:14.239Z,11.64
2023-01-18T17:44:43.542Z,11.59
2023-01-18T17:47:10.687Z,11.59
2023-01-18T17:49:37.774Z,11.59
2023-01-18T17:52:05.006Z,11.53
2023-01-18T17:54:34.027Z,11.55
2023-01-18T17:57:01.626Z,11.54
2023-01-18T17:59:29.393Z,11.49
2023-01-18T18:01:56.318Z,11.48
2023-01-18T18:04:23.349Z,11.45
2023-01-18T18:06:54.274Z,11.42
2023-01-18T18:09:21.638Z,11.36
2023-01-18T18:11:48.838Z,11.33
2023-01-18T18:14:16.651Z,11.30
2023-01-18T18:16:44.305Z,11.12
2023-01-18T18:19:15.054Z,11.13
2023-01-18T18:21:43.121Z,11.08
2023-01-18T18:24:10.201Z,11.11
2023-01-18T18:26:37.303Z,11.13
2023-01-18T18:29:04.954Z,11.15
2023-01-18T18:31:31.971Z,11.16
2023-01-18T18:33:59.103Z,11.19
2023-01-18T18:36:27.495Z,11.22
2023-01-18T18:39:01.056Z,11.19
2023-01-18T18:41:28.072Z,11.06
2023-01-18T18:43:54.977Z,11.05
2023-01-18T18:46:22.078Z,10.86
2023-01-18T18:48:49.743Z,10.89
2023-01-18T18:51:16.669Z,10.93
2023-01-18T18:53:44.001Z,10.87
2023-01-18T18:56:10.950Z,10.90
2023-01-18T18:58:38.975Z,10.91
2023-01-18T19:01:06.883Z,10.82
2023-01-18T19:03:43.913Z,10.84
2023-01-18T19:06:11.686Z,10.77
2023-01-18T19:08:38.603Z,10.72
2023-01-18T19:11:05.622Z,10.56
2023-01-18T19:13:32.642Z,10.58
2023-01-18T19:15:59.710Z,10.46
2023-01-18T19:18:26.967Z,10.45
2023-01-18T19:20:54.035Z,10.39
2023-01-18T19:23:21.124Z,10.37
2023-01-18T19:25:49.171Z,10.39
2023-01-18T19:28:17.095Z,10.32
2023-01-18T19:30:44.598Z,10.31
2023-01-18T19:33:13.348Z,10.21
2023-01-18T19:35:43.070Z,10.14
2023-01-18T19:38:10.297Z,10.18
2023-01-18T19:40:37.532Z,10.13
2023-01-18T19:43:04.410Z,10.14
2023-01-18T19:45:32.112Z,10.17
2023-01-18T19:48:01.382Z,10.08
2023-01-18T19:50:29.827Z,10.12
2023-01-18T19:52:57.651Z,10.12
2023-01-18T19:55:25.255Z,10.08
2023-01-18T19:57:56.547Z,10.10
2023-01-18T20:00:26.592Z,10.11
2023-01-18T20:02:53.673Z,10.13
2023-01-18T20:05:20.765Z,10.13
2023-01-18T20:07:48.083Z,10.15
2023-01-18T20:10:20.202Z,10.16
2023-01-18T20:12:48.743Z,10.11
2023-01-18T20:15:17.667Z,10.11
2023-01-18T20:17:45.176Z,10.15
2023-01-18T20:20:18.237Z,10.18
2023-01-18T20:22:48.563Z,10.16
2023-01-18T20:25:15.741Z,10.14
2023-01-18T20:27:42.840Z,10.10
2023-01-18T20:30:10.697Z,10.16
2023-01-18T20:32:41.490Z,10.15
2023-01-18T20:35:12.005Z,10.08
2023-01-18T20:37:39.234Z,10.06
2023-01-18T20:40:06.713Z,10.06
2023-01-18T20:42:33.847Z,10.03
2023-01-18T20:45:01.758Z,10.02
2023-01-18T20:47:29.919Z,10.03
2023-01-18T20:49:56.864Z,9.96
2023-01-18T20:52:23.921Z,9.92
2023-01-18T20:54:50.915Z,9.84
2023-01-18T20:57:18.920Z,9.80
2023-01-18T20:59:45.858Z,9.83
2023-01-18T21:02:12.992Z,9.76
2023-01-18T21:04:40.040Z,9.78
2023-01-18T21:07:07.037Z,9.75
2023-01-18T21:09:33.972Z,9.70
2023-01-18T21:12:01.028Z,9.73
2023-01-18T21:14:27.998Z,9.68
2023-01-18T21:16:55.086Z,9.64
2023-01-18T21:19:22.196Z,9.66
2023-01-18T21:21:49.272Z,9.64
2023-01-18T21:24:17.221Z,9.63
2023-01-18T21:26:44.314Z,9.65
2023-01-18T21:29:11.382Z,9.66
2023-01-18T21:31:40.163Z,9.63
2023-01-18T21:34:08.230Z,9.63
2023-01-18T21:36:35.270Z,9.60
2023-01-18T21:39:02.164Z,9.56
2023-01-18T21:41:47.492Z,9.53
2023-01-18T21:44:33.195Z,9.52
2023-01-18T21:47:01.168Z,9.49
2023-01-18T21:50:15.471Z,9.47
2023-01-18T21:52:52.792Z,9.42
2023-01-18T21:55:20.178Z,9.30
2023-01-18T21:58:07.146Z,9.27
2023-01-18T22:00:40.278Z,9.28
2023-01-18T22:03:07.867Z,9.23
2023-01-18T22:05:34.915Z,9.17
2023-01-18T22:08:02.490Z,9.12
2023-01-18T22:10:30.036Z,9.07
2023-01-18T22:12:57.064Z,8.99
2023-01-18T22:15:24.101Z,9.01
2023-01-18T22:17:51.023Z,8.99
2023-01-18T22:20:18.829Z,8.91
2023-01-18T22:22:46.722Z,8.95
2023-01-18T22:25:14.134Z,8.89
2023-01-18T22:27:41.466Z,8.90
2023-01-18T22:30:11.852Z,8.84
2023-01-18T22:32:38.951Z,8.85
2023-01-18T22:35:06.272Z,8.78
2023-01-18T22:37:33.397Z,8.77
2023-01-18T22:40:00.291Z,8.78
2023-01-18T22:42:27.728Z,8.79
2023-01-18T22:44:54.683Z,8.78
2023-01-18T22:47:21.712Z,8.78
2023-01-18T22:49:48.614Z,8.79
2023-01-18T22:52:15.991Z,8.76
2023-01-18T22:54:42.919Z,8.69
2023-01-18T22:57:10.005Z,8.68
2023-01-18T22:59:40.033Z,8.64
2023-01-18T23:02:07.134Z,8.62
2023-01-18T23:04:36.216Z,8.54
2023-01-18T23:07:03.316Z,8.58
2023-01-18T23:09:30.712Z,8.55
2023-01-18T23:11:57.944Z,8.58
2023-01-18T23:14:43.699Z,8.55
2023-01-18T23:17:32.743Z,8.53
2023-01-18T23:20:00.256Z,8.48
2023-01-18T23:22:27.361Z,8.42
2023-01-18T23:24:54.478Z,8.42
2023-01-18T23:27:21.697Z,8.37
2023-01-18T23:29:57.267Z,8.38
2023-01-18T23:32:30.563Z,8.28
2023-01-18T23:34:58.807Z,8.26
2023-01-18T23:37:27.248Z,8.22
2023-01-18T23:40:12.657Z,8.19
2023-01-18T23:42:58.459Z,8.18
2023-01-18T23:45:44.190Z,8.15
2023-01-18T23:48:33.114Z,8.12
2023-01-18T23:51:19.640Z,8.11
2023-01-18T23:54:06.437Z,8.10
2023-01-18T23:56:35.013Z,8.09
2023-01-18T23:59:02.588Z,8.09
